Howison, Mississippi
Current Conditions -  °F | °C
As of 5:53 PM on Sunday 23 Nov 2014 (Local Time) from KGPT Reporting Station
Clear Clear  
Wind Chill: 66°   Ceiling: Unl
Heat Index: 66°   Visibility: 10mi
Dew Point: 61°   Wind: 8mph
Humidity: 84%   Direction: 190°S
Pressure: 29.69"   Gusts: NA
Location:  30.603°N, 89.0932°W
Report Text: KGPT 232353Z 19007KT 10SM CLR 19/16 A2969 RMK AO2 SLP052 T01890161 10206 20167 53011
Loading
Personal Weather Stations






























Interactive Weather Map New forecast layout! Learn more

10-Day Weather Forecast

Advertisements
Track Severe Weather on mobile